sensor_id;sensor_type;location;lat;lon;timestamp;P1;durP1;ratioP1;P2;durP2;ratioP2
78887;SDS011;68276;49.326;8.690;2024-01-30T00:01:16;18.53;;;7.40;;
78887;SDS011;68276;49.326;8.690;2024-01-30T00:03:42;17.33;;;6.43;;
78887;SDS011;68276;49.326;8.690;2024-01-30T00:06:11;20.53;;;7.03;;
78887;SDS011;68276;49.326;8.690;2024-01-30T00:08:36;22.08;;;7.10;;
78887;SDS011;68276;49.326;8.690;2024-01-30T00:11:01;17.63;;;7.80;;
78887;SDS011;68276;49.326;8.690;2024-01-30T00:13:27;21.93;;;8.67;;
78887;SDS011;68276;49.326;8.690;2024-01-30T00:15:52;17.47;;;7.40;;
78887;SDS011;68276;49.326;8.690;2024-01-30T00:18:17;21.13;;;6.63;;
78887;SDS011;68276;49.326;8.690;2024-01-30T00:20:43;21.42;;;8.20;;
78887;SDS011;68276;49.326;8.690;2024-01-30T00:23:09;19.40;;;6.87;;
78887;SDS011;68276;49.326;8.690;2024-01-30T00:25:34;20.47;;;6.67;;
78887;SDS011;68276;49.326;8.690;2024-01-30T00:27:59;15.00;;;6.23;;
78887;SDS011;68276;49.326;8.690;2024-01-30T00:30:25;15.77;;;6.50;;
78887;SDS011;68276;49.326;8.690;2024-01-30T00:32:50;18.37;;;6.60;;
78887;SDS011;68276;49.326;8.690;2024-01-30T00:35:15;16.80;;;6.93;;
78887;SDS011;68276;49.326;8.690;2024-01-30T00:37:41;20.40;;;7.03;;
78887;SDS011;68276;49.326;8.690;2024-01-30T00:40:06;18.27;;;6.83;;
78887;SDS011;68276;49.326;8.690;2024-01-30T00:42:31;16.95;;;7.25;;
78887;SDS011;68276;49.326;8.690;2024-01-30T00:44:57;18.13;;;6.37;;
78887;SDS011;68276;49.326;8.690;2024-01-30T00:47:22;16.88;;;6.95;;
78887;SDS011;68276;49.326;8.690;2024-01-30T00:49:47;20.00;;;6.90;;
78887;SDS011;68276;49.326;8.690;2024-01-30T00:52:13;16.17;;;6.57;;
78887;SDS011;68276;49.326;8.690;2024-01-30T00:54:38;17.50;;;6.87;;
78887;SDS011;68276;49.326;8.690;2024-01-30T00:57:03;17.30;;;6.70;;
78887;SDS011;68276;49.326;8.690;2024-01-30T00:59:28;13.73;;;6.57;;
78887;SDS011;68276;49.326;8.690;2024-01-30T01:01:54;19.00;;;5.50;;
78887;SDS011;68276;49.326;8.690;2024-01-30T01:04:19;17.57;;;7.17;;
78887;SDS011;68276;49.326;8.690;2024-01-30T01:06:46;16.83;;;7.03;;
78887;SDS011;68276;49.326;8.690;2024-01-30T01:09:11;15.97;;;6.50;;
78887;SDS011;68276;49.326;8.690;2024-01-30T01:11:37;15.27;;;7.00;;
78887;SDS011;68276;49.326;8.690;2024-01-30T01:14:03;15.00;;;6.55;;
78887;SDS011;68276;49.326;8.690;2024-01-30T01:16:28;17.05;;;7.75;;
78887;SDS011;68276;49.326;8.690;2024-01-30T01:18:53;13.87;;;6.37;;
78887;SDS011;68276;49.326;8.690;2024-01-30T01:21:18;16.87;;;6.23;;
78887;SDS011;68276;49.326;8.690;2024-01-30T01:23:44;15.57;;;7.03;;
78887;SDS011;68276;49.326;8.690;2024-01-30T01:26:09;19.87;;;6.73;;
78887;SDS011;68276;49.326;8.690;2024-01-30T01:28:35;18.58;;;6.65;;
78887;SDS011;68276;49.326;8.690;2024-01-30T01:31:00;16.97;;;5.93;;
78887;SDS011;68276;49.326;8.690;2024-01-30T01:33:30;16.15;;;6.18;;
78887;SDS011;68276;49.326;8.690;2024-01-30T01:35:57;14.07;;;5.85;;
78887;SDS011;68276;49.326;8.690;2024-01-30T01:38:22;16.37;;;5.73;;
78887;SDS011;68276;49.326;8.690;2024-01-30T01:40:47;15.20;;;5.60;;
78887;SDS011;68276;49.326;8.690;2024-01-30T01:43:12;15.13;;;6.47;;
78887;SDS011;68276;49.326;8.690;2024-01-30T01:45:38;13.00;;;5.90;;
78887;SDS011;68276;49.326;8.690;2024-01-30T01:48:03;14.70;;;5.63;;
78887;SDS011;68276;49.326;8.690;2024-01-30T01:50:28;16.97;;;5.63;;
78887;SDS011;68276;49.326;8.690;2024-01-30T01:52:53;16.37;;;5.93;;
78887;SDS011;68276;49.326;8.690;2024-01-30T01:55:20;16.02;;;5.78;;
78887;SDS011;68276;49.326;8.690;2024-01-30T01:57:49;14.38;;;5.43;;
78887;SDS011;68276;49.326;8.690;2024-01-30T02:00:15;10.67;;;4.03;;
78887;SDS011;68276;49.326;8.690;2024-01-30T02:02:40;11.77;;;4.43;;
78887;SDS011;68276;49.326;8.690;2024-01-30T02:05:21;13.40;;;4.60;;
78887;SDS011;68276;49.326;8.690;2024-01-30T02:07:46;12.95;;;4.80;;
78887;SDS011;68276;49.326;8.690;2024-01-30T02:10:12;16.70;;;5.57;;
78887;SDS011;68276;49.326;8.690;2024-01-30T02:12:37;12.32;;;4.88;;
78887;SDS011;68276;49.326;8.690;2024-01-30T02:15:03;11.33;;;4.27;;
78887;SDS011;68276;49.326;8.690;2024-01-30T02:17:30;13.07;;;5.00;;
78887;SDS011;68276;49.326;8.690;2024-01-30T02:19:55;11.70;;;3.80;;
78887;SDS011;68276;49.326;8.690;2024-01-30T02:22:20;8.80;;;3.00;;
78887;SDS011;68276;49.326;8.690;2024-01-30T02:24:46;8.05;;;2.88;;
78887;SDS011;68276;49.326;8.690;2024-01-30T02:27:11;8.10;;;2.40;;
78887;SDS011;68276;49.326;8.690;2024-01-30T02:29:37;7.57;;;2.30;;
78887;SDS011;68276;49.326;8.690;2024-01-30T02:32:02;8.60;;;2.85;;
78887;SDS011;68276;49.326;8.690;2024-01-30T02:34:27;7.47;;;2.70;;
78887;SDS011;68276;49.326;8.690;2024-01-30T02:36:53;7.87;;;2.67;;
78887;SDS011;68276;49.326;8.690;2024-01-30T02:39:18;11.00;;;2.73;;
78887;SDS011;68276;49.326;8.690;2024-01-30T02:41:43;7.43;;;2.70;;
78887;SDS011;68276;49.326;8.690;2024-01-30T02:44:08;8.50;;;2.70;;
78887;SDS011;68276;49.326;8.690;2024-01-30T02:46:34;9.13;;;2.80;;
78887;SDS011;68276;49.326;8.690;2024-01-30T02:48:59;8.67;;;2.73;;
78887;SDS011;68276;49.326;8.690;2024-01-30T02:51:24;8.93;;;2.90;;
78887;SDS011;68276;49.326;8.690;2024-01-30T02:53:50;13.57;;;3.50;;
78887;SDS011;68276;49.326;8.690;2024-01-30T02:56:15;9.20;;;3.03;;
78887;SDS011;68276;49.326;8.690;2024-01-30T02:58:40;9.30;;;2.90;;
78887;SDS011;68276;49.326;8.690;2024-01-30T03:01:06;9.33;;;2.87;;
78887;SDS011;68276;49.326;8.690;2024-01-30T03:03:31;10.93;;;3.25;;
78887;SDS011;68276;49.326;8.690;2024-01-30T03:05:56;12.73;;;3.17;;
78887;SDS011;68276;49.326;8.690;2024-01-30T03:08:22;8.27;;;2.83;;
78887;SDS011;68276;49.326;8.690;2024-01-30T03:10:47;11.17;;;3.47;;
78887;SDS011;68276;49.326;8.690;2024-01-30T03:13:12;9.13;;;2.90;;
78887;SDS011;68276;49.326;8.690;2024-01-30T03:15:38;11.38;;;3.13;;
78887;SDS011;68276;49.326;8.690;2024-01-30T03:18:03;8.53;;;2.77;;
78887;SDS011;68276;49.326;8.690;2024-01-30T03:20:31;12.38;;;3.80;;
78887;SDS011;68276;49.326;8.690;2024-01-30T03:22:56;9.10;;;3.23;;
78887;SDS011;68276;49.326;8.690;2024-01-30T03:25:22;12.53;;;3.23;;
78887;SDS011;68276;49.326;8.690;2024-01-30T03:27:47;13.10;;;3.87;;
78887;SDS011;68276;49.326;8.690;2024-01-30T03:30:12;9.10;;;3.27;;
78887;SDS011;68276;49.326;8.690;2024-01-30T03:32:38;8.83;;;3.37;;
78887;SDS011;68276;49.326;8.690;2024-01-30T03:35:03;8.87;;;3.20;;
78887;SDS011;68276;49.326;8.690;2024-01-30T03:37:29;10.68;;;3.30;;
78887;SDS011;68276;49.326;8.690;2024-01-30T03:39:54;8.67;;;2.93;;
78887;SDS011;68276;49.326;8.690;2024-01-30T03:42:19;10.47;;;3.60;;
78887;SDS011;68276;49.326;8.690;2024-01-30T03:44:44;9.05;;;3.28;;
78887;SDS011;68276;49.326;8.690;2024-01-30T03:47:10;10.13;;;3.40;;
78887;SDS011;68276;49.326;8.690;2024-01-30T03:49:35;9.93;;;3.20;;
78887;SDS011;68276;49.326;8.690;2024-01-30T03:52:00;9.30;;;3.43;;
78887;SDS011;68276;49.326;8.690;2024-01-30T03:54:25;9.47;;;3.10;;
78887;SDS011;68276;49.326;8.690;2024-01-30T03:56:51;10.10;;;3.83;;
78887;SDS011;68276;49.326;8.690;2024-01-30T03:59:16;11.90;;;3.90;;
78887;SDS011;68276;49.326;8.690;2024-01-30T04:01:44;11.00;;;3.85;;
78887;SDS011;68276;49.326;8.690;2024-01-30T04:04:11;11.23;;;3.67;;
78887;SDS011;68276;49.326;8.690;2024-01-30T04:06:36;12.07;;;4.33;;
78887;SDS011;68276;49.326;8.690;2024-01-30T04:09:02;10.13;;;3.35;;
78887;SDS011;68276;49.326;8.690;2024-01-30T04:11:28;11.13;;;3.83;;
78887;SDS011;68276;49.326;8.690;2024-01-30T04:13:54;11.80;;;3.77;;
78887;SDS011;68276;49.326;8.690;2024-01-30T04:16:19;10.23;;;4.27;;
78887;SDS011;68276;49.326;8.690;2024-01-30T04:18:46;13.73;;;3.97;;
78887;SDS011;68276;49.326;8.690;2024-01-30T04:21:11;13.20;;;4.47;;
78887;SDS011;68276;49.326;8.690;2024-01-30T04:23:36;10.73;;;4.00;;
78887;SDS011;68276;49.326;8.690;2024-01-30T04:26:01;12.73;;;4.13;;
78887;SDS011;68276;49.326;8.690;2024-01-30T04:28:27;11.67;;;3.80;;
78887;SDS011;68276;49.326;8.690;2024-01-30T04:30:52;12.07;;;4.13;;
78887;SDS011;68276;49.326;8.690;2024-01-30T04:33:17;12.10;;;3.80;;
78887;SDS011;68276;49.326;8.690;2024-01-30T04:35:43;8.57;;;3.13;;
78887;SDS011;68276;49.326;8.690;2024-01-30T04:38:08;11.70;;;3.83;;
78887;SDS011;68276;49.326;8.690;2024-01-30T04:40:34;11.30;;;3.93;;
78887;SDS011;68276;49.326;8.690;2024-01-30T04:42:59;12.03;;;3.60;;
78887;SDS011;68276;49.326;8.690;2024-01-30T04:45:24;10.67;;;4.00;;
78887;SDS011;68276;49.326;8.690;2024-01-30T04:47:49;12.30;;;4.23;;
78887;SDS011;68276;49.326;8.690;2024-01-30T04:50:15;12.45;;;4.10;;
78887;SDS011;68276;49.326;8.690;2024-01-30T04:52:40;10.57;;;3.80;;
78887;SDS011;68276;49.326;8.690;2024-01-30T04:55:06;9.77;;;3.63;;
78887;SDS011;68276;49.326;8.690;2024-01-30T04:57:31;11.57;;;4.25;;
78887;SDS011;68276;49.326;8.690;2024-01-30T04:59:58;11.10;;;4.05;;
78887;SDS011;68276;49.326;8.690;2024-01-30T05:02:23;10.87;;;3.97;;
78887;SDS011;68276;49.326;8.690;2024-01-30T05:04:49;11.77;;;4.60;;
78887;SDS011;68276;49.326;8.690;2024-01-30T05:07:14;12.20;;;4.40;;
78887;SDS011;68276;49.326;8.690;2024-01-30T05:09:39;10.77;;;3.40;;
78887;SDS011;68276;49.326;8.690;2024-01-30T05:12:04;9.57;;;3.57;;
78887;SDS011;68276;49.326;8.690;2024-01-30T05:14:30;10.45;;;3.63;;
78887;SDS011;68276;49.326;8.690;2024-01-30T05:16:55;11.00;;;4.00;;
78887;SDS011;68276;49.326;8.690;2024-01-30T05:19:21;12.13;;;3.70;;
78887;SDS011;68276;49.326;8.690;2024-01-30T05:21:48;12.05;;;4.10;;
78887;SDS011;68276;49.326;8.690;2024-01-30T05:24:14;9.30;;;3.00;;
78887;SDS011;68276;49.326;8.690;2024-01-30T05:26:40;11.18;;;4.15;;
78887;SDS011;68276;49.326;8.690;2024-01-30T05:29:05;14.13;;;4.37;;
78887;SDS011;68276;49.326;8.690;2024-01-30T05:31:31;10.32;;;3.80;;
78887;SDS011;68276;49.326;8.690;2024-01-30T05:33:56;11.40;;;3.60;;
78887;SDS011;68276;49.326;8.690;2024-01-30T05:36:22;10.00;;;3.50;;
78887;SDS011;68276;49.326;8.690;2024-01-30T05:38:47;10.30;;;3.63;;
78887;SDS011;68276;49.326;8.690;2024-01-30T05:41:12;11.00;;;3.43;;
78887;SDS011;68276;49.326;8.690;2024-01-30T05:43:38;11.02;;;3.65;;
78887;SDS011;68276;49.326;8.690;2024-01-30T05:46:03;8.60;;;3.80;;
78887;SDS011;68276;49.326;8.690;2024-01-30T05:48:28;11.03;;;3.90;;
78887;SDS011;68276;49.326;8.690;2024-01-30T05:50:53;11.27;;;4.03;;
78887;SDS011;68276;49.326;8.690;2024-01-30T05:53:19;10.40;;;4.00;;
78887;SDS011;68276;49.326;8.690;2024-01-30T05:55:44;10.60;;;4.10;;
78887;SDS011;68276;49.326;8.690;2024-01-30T05:58:09;10.90;;;4.00;;
78887;SDS011;68276;49.326;8.690;2024-01-30T06:00:34;10.43;;;3.43;;
78887;SDS011;68276;49.326;8.690;2024-01-30T06:03:00;9.53;;;3.57;;
78887;SDS011;68276;49.326;8.690;2024-01-30T06:05:25;11.87;;;4.10;;
78887;SDS011;68276;49.326;8.690;2024-01-30T06:07:50;9.70;;;3.80;;
78887;SDS011;68276;49.326;8.690;2024-01-30T06:10:15;9.20;;;3.80;;
78887;SDS011;68276;49.326;8.690;2024-01-30T06:12:41;9.88;;;3.50;;
78887;SDS011;68276;49.326;8.690;2024-01-30T06:15:06;10.50;;;3.83;;
78887;SDS011;68276;49.326;8.690;2024-01-30T06:17:32;10.55;;;3.85;;
78887;SDS011;68276;49.326;8.690;2024-01-30T06:19:57;9.57;;;3.22;;
78887;SDS011;68276;49.326;8.690;2024-01-30T06:22:22;9.27;;;3.60;;
78887;SDS011;68276;49.326;8.690;2024-01-30T06:24:48;11.50;;;3.83;;
78887;SDS011;68276;49.326;8.690;2024-01-30T06:27:14;8.52;;;3.08;;
78887;SDS011;68276;49.326;8.690;2024-01-30T06:29:39;9.27;;;3.78;;
78887;SDS011;68276;49.326;8.690;2024-01-30T06:32:05;10.35;;;3.88;;
78887;SDS011;68276;49.326;8.690;2024-01-30T06:34:30;10.02;;;3.88;;
78887;SDS011;68276;49.326;8.690;2024-01-30T06:36:55;13.40;;;3.63;;
78887;SDS011;68276;49.326;8.690;2024-01-30T06:39:21;12.90;;;3.70;;
78887;SDS011;68276;49.326;8.690;2024-01-30T06:41:47;9.75;;;3.42;;
78887;SDS011;68276;49.326;8.690;2024-01-30T06:44:12;12.57;;;3.87;;
78887;SDS011;68276;49.326;8.690;2024-01-30T06:46:38;9.65;;;3.47;;
78887;SDS011;68276;49.326;8.690;2024-01-30T06:49:03;8.82;;;3.50;;
78887;SDS011;68276;49.326;8.690;2024-01-30T06:51:28;11.87;;;3.40;;
78887;SDS011;68276;49.326;8.690;2024-01-30T06:53:53;10.67;;;3.67;;
78887;SDS011;68276;49.326;8.690;2024-01-30T06:56:19;9.60;;;4.30;;
78887;SDS011;68276;49.326;8.690;2024-01-30T06:58:50;9.45;;;3.72;;
78887;SDS011;68276;49.326;8.690;2024-01-30T07:01:16;11.05;;;4.10;;
78887;SDS011;68276;49.326;8.690;2024-01-30T07:03:41;10.10;;;3.70;;
78887;SDS011;68276;49.326;8.690;2024-01-30T07:06:07;12.50;;;3.97;;
78887;SDS011;68276;49.326;8.690;2024-01-30T07:08:32;10.73;;;3.73;;
78887;SDS011;68276;49.326;8.690;2024-01-30T07:10:57;12.93;;;4.00;;
78887;SDS011;68276;49.326;8.690;2024-01-30T07:13:23;11.60;;;3.63;;
78887;SDS011;68276;49.326;8.690;2024-01-30T07:15:48;10.03;;;3.00;;
78887;SDS011;68276;49.326;8.690;2024-01-30T07:18:13;9.23;;;3.20;;
78887;SDS011;68276;49.326;8.690;2024-01-30T07:20:39;9.67;;;3.47;;
78887;SDS011;68276;49.326;8.690;2024-01-30T07:23:11;11.30;;;3.33;;
78887;SDS011;68276;49.326;8.690;2024-01-30T07:25:38;10.65;;;3.33;;
78887;SDS011;68276;49.326;8.690;2024-01-30T07:28:06;9.30;;;3.40;;
78887;SDS011;68276;49.326;8.690;2024-01-30T07:30:31;8.50;;;3.00;;
78887;SDS011;68276;49.326;8.690;2024-01-30T07:32:56;10.37;;;3.50;;
78887;SDS011;68276;49.326;8.690;2024-01-30T07:35:22;14.10;;;3.37;;
78887;SDS011;68276;49.326;8.690;2024-01-30T07:37:47;9.17;;;3.00;;
78887;SDS011;68276;49.326;8.690;2024-01-30T07:40:12;9.50;;;3.60;;
78887;SDS011;68276;49.326;8.690;2024-01-30T07:42:37;10.50;;;3.33;;
78887;SDS011;68276;49.326;8.690;2024-01-30T07:45:03;9.00;;;3.43;;
78887;SDS011;68276;49.326;8.690;2024-01-30T07:47:28;8.47;;;3.20;;
78887;SDS011;68276;49.326;8.690;2024-01-30T07:49:53;11.13;;;3.53;;
78887;SDS011;68276;49.326;8.690;2024-01-30T07:52:19;11.98;;;4.18;;
78887;SDS011;68276;49.326;8.690;2024-01-30T07:54:44;12.67;;;3.57;;
78887;SDS011;68276;49.326;8.690;2024-01-30T07:57:09;22.70;;;3.57;;
78887;SDS011;68276;49.326;8.690;2024-01-30T07:59:35;9.27;;;3.37;;
78887;SDS011;68276;49.326;8.690;2024-01-30T08:02:01;12.13;;;3.42;;
78887;SDS011;68276;49.326;8.690;2024-01-30T08:04:27;8.48;;;3.25;;
78887;SDS011;68276;49.326;8.690;2024-01-30T08:06:52;9.43;;;3.43;;
78887;SDS011;68276;49.326;8.690;2024-01-30T08:09:17;12.13;;;4.27;;
78887;SDS011;68276;49.326;8.690;2024-01-30T08:11:43;12.65;;;4.18;;
78887;SDS011;68276;49.326;8.690;2024-01-30T08:14:08;11.80;;;3.77;;
78887;SDS011;68276;49.326;8.690;2024-01-30T08:16:33;14.27;;;4.00;;
78887;SDS011;68276;49.326;8.690;2024-01-30T08:18:58;10.50;;;3.60;;
78887;SDS011;68276;49.326;8.690;2024-01-30T08:21:24;9.33;;;3.67;;
78887;SDS011;68276;49.326;8.690;2024-01-30T08:23:49;11.18;;;3.60;;
78887;SDS011;68276;49.326;8.690;2024-01-30T08:26:14;13.30;;;4.00;;
78887;SDS011;68276;49.326;8.690;2024-01-30T08:28:40;11.97;;;3.93;;
78887;SDS011;68276;49.326;8.690;2024-01-30T08:31:05;8.63;;;3.63;;
78887;SDS011;68276;49.326;8.690;2024-01-30T08:33:30;10.43;;;3.30;;
78887;SDS011;68276;49.326;8.690;2024-01-30T08:35:55;11.57;;;3.13;;
78887;SDS011;68276;49.326;8.690;2024-01-30T08:38:21;15.97;;;4.30;;
78887;SDS011;68276;49.326;8.690;2024-01-30T08:40:46;13.50;;;4.67;;
78887;SDS011;68276;49.326;8.690;2024-01-30T08:43:11;11.77;;;3.83;;
78887;SDS011;68276;49.326;8.690;2024-01-30T08:45:37;14.45;;;4.03;;
78887;SDS011;68276;49.326;8.690;2024-01-30T08:48:02;11.70;;;4.00;;
78887;SDS011;68276;49.326;8.690;2024-01-30T08:50:28;10.95;;;3.45;;
78887;SDS011;68276;49.326;8.690;2024-01-30T08:52:54;11.23;;;4.30;;
78887;SDS011;68276;49.326;8.690;2024-01-30T08:55:19;11.90;;;4.03;;
78887;SDS011;68276;49.326;8.690;2024-01-30T08:57:45;12.87;;;4.80;;
78887;SDS011;68276;49.326;8.690;2024-01-30T09:00:10;10.77;;;4.13;;
78887;SDS011;68276;49.326;8.690;2024-01-30T09:02:37;10.63;;;3.90;;
78887;SDS011;68276;49.326;8.690;2024-01-30T09:05:03;11.00;;;3.70;;
78887;SDS011;68276;49.326;8.690;2024-01-30T09:07:28;9.75;;;3.53;;
78887;SDS011;68276;49.326;8.690;2024-01-30T09:09:53;11.40;;;4.53;;
78887;SDS011;68276;49.326;8.690;2024-01-30T09:12:18;10.37;;;4.00;;
78887;SDS011;68276;49.326;8.690;2024-01-30T09:14:44;9.57;;;3.90;;
78887;SDS011;68276;49.326;8.690;2024-01-30T09:17:09;20.83;;;5.27;;
78887;SDS011;68276;49.326;8.690;2024-01-30T09:19:34;10.80;;;4.03;;
78887;SDS011;68276;49.326;8.690;2024-01-30T09:22:00;12.10;;;4.50;;
78887;SDS011;68276;49.326;8.690;2024-01-30T09:24:26;11.73;;;4.47;;
78887;SDS011;68276;49.326;8.690;2024-01-30T09:26:51;11.38;;;4.88;;
78887;SDS011;68276;49.326;8.690;2024-01-30T09:29:17;12.43;;;4.50;;
78887;SDS011;68276;49.326;8.690;2024-01-30T09:31:45;12.33;;;4.23;;
78887;SDS011;68276;49.326;8.690;2024-01-30T09:34:11;10.52;;;4.60;;
78887;SDS011;68276;49.326;8.690;2024-01-30T09:36:36;10.38;;;3.90;;
78887;SDS011;68276;49.326;8.690;2024-01-30T09:39:02;10.33;;;4.17;;
78887;SDS011;68276;49.326;8.690;2024-01-30T09:41:29;10.70;;;3.92;;
78887;SDS011;68276;49.326;8.690;2024-01-30T09:43:57;15.18;;;4.22;;
78887;SDS011;68276;49.326;8.690;2024-01-30T09:46:22;10.90;;;4.00;;
78887;SDS011;68276;49.326;8.690;2024-01-30T09:51:14;11.88;;;4.00;;
78887;SDS011;68276;49.326;8.690;2024-01-30T09:53:40;11.10;;;3.85;;
78887;SDS011;68276;49.326;8.690;2024-01-30T09:56:05;12.52;;;4.38;;
78887;SDS011;68276;49.326;8.690;2024-01-30T09:58:30;12.77;;;4.53;;
78887;SDS011;68276;49.326;8.690;2024-01-30T10:00:56;12.33;;;4.53;;
78887;SDS011;68276;49.326;8.690;2024-01-30T10:03:21;12.10;;;4.10;;
78887;SDS011;68276;49.326;8.690;2024-01-30T10:05:55;10.03;;;4.07;;
78887;SDS011;68276;49.326;8.690;2024-01-30T10:08:21;11.48;;;3.83;;
78887;SDS011;68276;49.326;8.690;2024-01-30T10:10:50;10.53;;;3.97;;
78887;SDS011;68276;49.326;8.690;2024-01-30T10:13:16;12.07;;;3.65;;
78887;SDS011;68276;49.326;8.690;2024-01-30T10:15:41;10.48;;;4.05;;
78887;SDS011;68276;49.326;8.690;2024-01-30T10:18:07;11.75;;;4.40;;
78887;SDS011;68276;49.326;8.690;2024-01-30T10:20:33;11.20;;;4.20;;
78887;SDS011;68276;49.326;8.690;2024-01-30T10:22:59;10.15;;;3.50;;
78887;SDS011;68276;49.326;8.690;2024-01-30T10:25:25;11.40;;;3.97;;
78887;SDS011;68276;49.326;8.690;2024-01-30T10:27:54;16.70;;;4.78;;
78887;SDS011;68276;49.326;8.690;2024-01-30T10:30:23;14.43;;;4.13;;
78887;SDS011;68276;49.326;8.690;2024-01-30T10:32:49;10.93;;;3.95;;
78887;SDS011;68276;49.326;8.690;2024-01-30T10:35:15;10.38;;;3.90;;
78887;SDS011;68276;49.326;8.690;2024-01-30T10:37:41;12.55;;;4.00;;
78887;SDS011;68276;49.326;8.690;2024-01-30T10:40:08;11.35;;;4.35;;
78887;SDS011;68276;49.326;8.690;2024-01-30T10:42:34;11.73;;;4.22;;
78887;SDS011;68276;49.326;8.690;2024-01-30T10:45:13;11.65;;;4.03;;
78887;SDS011;68276;49.326;8.690;2024-01-30T10:47:48;11.98;;;4.60;;
78887;SDS011;68276;49.326;8.690;2024-01-30T10:50:14;9.88;;;3.85;;
78887;SDS011;68276;49.326;8.690;2024-01-30T10:52:40;10.65;;;4.07;;
78887;SDS011;68276;49.326;8.690;2024-01-30T10:55:07;10.27;;;4.10;;
78887;SDS011;68276;49.326;8.690;2024-01-30T10:57:33;12.43;;;5.28;;
78887;SDS011;68276;49.326;8.690;2024-01-30T10:59:59;12.18;;;3.92;;
78887;SDS011;68276;49.326;8.690;2024-01-30T11:02:25;9.77;;;3.63;;
78887;SDS011;68276;49.326;8.690;2024-01-30T11:04:54;10.43;;;4.10;;
78887;SDS011;68276;49.326;8.690;2024-01-30T11:07:24;12.57;;;4.30;;
78887;SDS011;68276;49.326;8.690;2024-01-30T11:09:53;10.50;;;4.18;;
78887;SDS011;68276;49.326;8.690;2024-01-30T11:12:22;12.23;;;4.75;;
78887;SDS011;68276;49.326;8.690;2024-01-30T11:14:48;11.48;;;5.05;;
78887;SDS011;68276;49.326;8.690;2024-01-30T11:17:14;12.90;;;4.50;;
78887;SDS011;68276;49.326;8.690;2024-01-30T11:19:39;13.37;;;4.50;;
78887;SDS011;68276;49.326;8.690;2024-01-30T11:22:06;10.98;;;4.60;;
78887;SDS011;68276;49.326;8.690;2024-01-30T11:24:36;12.95;;;4.88;;
78887;SDS011;68276;49.326;8.690;2024-01-30T11:27:01;12.02;;;4.60;;
78887;SDS011;68276;49.326;8.690;2024-01-30T11:29:28;10.40;;;4.80;;
78887;SDS011;68276;49.326;8.690;2024-01-30T11:31:54;10.85;;;4.53;;
78887;SDS011;68276;49.326;8.690;2024-01-30T11:34:20;12.98;;;4.47;;
78887;SDS011;68276;49.326;8.690;2024-01-30T11:36:45;9.80;;;3.70;;
78887;SDS011;68276;49.326;8.690;2024-01-30T11:39:15;11.93;;;4.57;;
78887;SDS011;68276;49.326;8.690;2024-01-30T11:41:42;10.85;;;4.50;;
78887;SDS011;68276;49.326;8.690;2024-01-30T11:44:08;10.85;;;4.10;;
78887;SDS011;68276;49.326;8.690;2024-01-30T11:46:34;12.18;;;4.60;;
78887;SDS011;68276;49.326;8.690;2024-01-30T11:49:00;10.45;;;4.30;;
78887;SDS011;68276;49.326;8.690;2024-01-30T11:51:25;11.53;;;4.37;;
78887;SDS011;68276;49.326;8.690;2024-01-30T11:53:51;11.43;;;4.37;;
78887;SDS011;68276;49.326;8.690;2024-01-30T11:56:16;12.02;;;5.10;;
78887;SDS011;68276;49.326;8.690;2024-01-30T11:58:42;13.77;;;4.63;;
78887;SDS011;68276;49.326;8.690;2024-01-30T12:01:08;13.60;;;4.70;;
78887;SDS011;68276;49.326;8.690;2024-01-30T12:03:33;11.67;;;4.17;;
78887;SDS011;68276;49.326;8.690;2024-01-30T12:05:58;11.87;;;4.60;;
78887;SDS011;68276;49.326;8.690;2024-01-30T12:08:23;12.30;;;4.70;;
78887;SDS011;68276;49.326;8.690;2024-01-30T12:10:56;10.27;;;4.23;;
78887;SDS011;68276;49.326;8.690;2024-01-30T12:13:22;11.13;;;4.45;;
78887;SDS011;68276;49.326;8.690;2024-01-30T12:15:47;13.93;;;4.40;;
78887;SDS011;68276;49.326;8.690;2024-01-30T12:18:12;12.97;;;4.30;;
78887;SDS011;68276;49.326;8.690;2024-01-30T12:20:38;12.00;;;4.37;;
78887;SDS011;68276;49.326;8.690;2024-01-30T12:23:03;11.50;;;5.30;;
78887;SDS011;68276;49.326;8.690;2024-01-30T12:25:28;10.77;;;4.35;;
78887;SDS011;68276;49.326;8.690;2024-01-30T12:27:54;12.17;;;4.70;;
78887;SDS011;68276;49.326;8.690;2024-01-30T12:30:19;11.03;;;4.27;;
78887;SDS011;68276;49.326;8.690;2024-01-30T12:32:45;12.73;;;4.18;;
78887;SDS011;68276;49.326;8.690;2024-01-30T12:35:11;10.15;;;4.03;;
78887;SDS011;68276;49.326;8.690;2024-01-30T12:37:37;13.15;;;4.10;;
78887;SDS011;68276;49.326;8.690;2024-01-30T12:40:02;12.60;;;4.32;;
78887;SDS011;68276;49.326;8.690;2024-01-30T12:42:28;15.63;;;6.25;;
78887;SDS011;68276;49.326;8.690;2024-01-30T12:44:53;10.83;;;4.10;;
78887;SDS011;68276;49.326;8.690;2024-01-30T12:47:20;11.90;;;4.30;;
78887;SDS011;68276;49.326;8.690;2024-01-30T12:49:46;13.95;;;4.53;;
78887;SDS011;68276;49.326;8.690;2024-01-30T12:52:11;10.93;;;4.70;;
78887;SDS011;68276;49.326;8.690;2024-01-30T12:54:37;11.18;;;4.10;;
78887;SDS011;68276;49.326;8.690;2024-01-30T12:57:02;10.00;;;3.90;;
78887;SDS011;68276;49.326;8.690;2024-01-30T12:59:28;11.65;;;4.38;;
78887;SDS011;68276;49.326;8.690;2024-01-30T13:01:53;10.93;;;4.13;;
78887;SDS011;68276;49.326;8.690;2024-01-30T13:04:18;11.03;;;4.20;;
78887;SDS011;68276;49.326;8.690;2024-01-30T13:06:43;11.47;;;4.23;;
78887;SDS011;68276;49.326;8.690;2024-01-30T13:09:09;10.27;;;4.00;;
78887;SDS011;68276;49.326;8.690;2024-01-30T13:14:01;12.13;;;4.50;;
78887;SDS011;68276;49.326;8.690;2024-01-30T13:16:26;11.97;;;4.23;;
78887;SDS011;68276;49.326;8.690;2024-01-30T13:18:51;12.23;;;4.07;;
78887;SDS011;68276;49.326;8.690;2024-01-30T13:21:16;13.17;;;4.13;;
78887;SDS011;68276;49.326;8.690;2024-01-30T13:23:42;10.63;;;4.40;;
78887;SDS011;68276;49.326;8.690;2024-01-30T13:26:08;12.90;;;4.00;;
78887;SDS011;68276;49.326;8.690;2024-01-30T13:28:33;10.87;;;4.27;;
78887;SDS011;68276;49.326;8.690;2024-01-30T13:30:58;9.63;;;4.00;;
78887;SDS011;68276;49.326;8.690;2024-01-30T13:33:23;15.20;;;4.37;;
78887;SDS011;68276;49.326;8.690;2024-01-30T13:35:49;11.70;;;4.23;;
78887;SDS011;68276;49.326;8.690;2024-01-30T13:38:14;11.53;;;4.00;;
78887;SDS011;68276;49.326;8.690;2024-01-30T13:43:05;10.48;;;4.35;;
78887;SDS011;68276;49.326;8.690;2024-01-30T13:45:31;10.17;;;4.00;;
78887;SDS011;68276;49.326;8.690;2024-01-30T13:47:56;10.77;;;4.00;;
78887;SDS011;68276;49.326;8.690;2024-01-30T13:50:21;10.97;;;4.73;;
78887;SDS011;68276;49.326;8.690;2024-01-30T13:52:46;13.90;;;4.40;;
78887;SDS011;68276;49.326;8.690;2024-01-30T13:55:12;11.33;;;4.13;;
78887;SDS011;68276;49.326;8.690;2024-01-30T13:57:38;11.60;;;4.57;;
78887;SDS011;68276;49.326;8.690;2024-01-30T14:00:05;11.23;;;4.23;;
78887;SDS011;68276;49.326;8.690;2024-01-30T14:02:34;11.50;;;4.32;;
78887;SDS011;68276;49.326;8.690;2024-01-30T14:04:59;13.55;;;4.22;;
78887;SDS011;68276;49.326;8.690;2024-01-30T14:07:25;12.23;;;4.13;;
78887;SDS011;68276;49.326;8.690;2024-01-30T14:09:50;12.17;;;4.13;;
78887;SDS011;68276;49.326;8.690;2024-01-30T14:12:15;15.53;;;5.23;;
78887;SDS011;68276;49.326;8.690;2024-01-30T14:14:40;10.27;;;4.40;;
78887;SDS011;68276;49.326;8.690;2024-01-30T14:17:06;11.03;;;3.83;;
78887;SDS011;68276;49.326;8.690;2024-01-30T14:19:32;12.27;;;4.47;;
78887;SDS011;68276;49.326;8.690;2024-01-30T14:21:57;13.50;;;4.15;;
78887;SDS011;68276;49.326;8.690;2024-01-30T14:24:22;14.03;;;4.57;;
78887;SDS011;68276;49.326;8.690;2024-01-30T14:26:48;13.63;;;4.10;;
78887;SDS011;68276;49.326;8.690;2024-01-30T14:29:13;10.93;;;4.13;;
78887;SDS011;68276;49.326;8.690;2024-01-30T14:31:38;14.60;;;4.20;;
78887;SDS011;68276;49.326;8.690;2024-01-30T14:34:04;12.47;;;3.67;;